• Join FlightAware (Why Join?)
  • Login
  • US Flag GB Flag 
01:10 EDT


 

Airport Tracker/Info


-or-


 

Live Flight TrackerFlight Track Log ✈ SWA1435 ✈ 19-Apr-2013 ✈ KDAL - KSTL

Flight Track Log - Related Links

Times and Time Zones

All times are in EDT time to prevent confusion due to time zone crossing. See the SWA1435 flight status page for this flight to view local times or setup timezone preferences in your user account.

Time Position Orientation Groundspeed Altitude Reporting Facility
EDT Latitude Longitude Course Direction KTS MPH feet Rate Location/Type
07:10 32.8833 -96.8833 16° North 164 189 3,400  Level Dallas / Fort Worth TRACON
07:11 32.9667 -96.9000 350° North 236 272 8,800 3,420 Climbing Dallas / Fort Worth TRACON
07:13 33.1119 -96.8803 North 291 335 15,800 3,120 Climbing Fort Worth Center
07:14 33.1956 -96.8672 North 317 365 17,900 2,400 Climbing Fort Worth Center
07:15 33.3866 -96.5600 16° North  Level FlightAware Approximate
07:15 33.3142 -96.8467 North 373 429 20,600  Level Fort Worth Center
07:16 33.4289 -96.8261 North 412 474 23,600 2,520 Climbing Fort Worth Center
07:17 33.5456 -96.7656 23° Northeast 428 493 25,700 1,200 Climbing Fort Worth Center
07:18 33.6642 -96.6897 28° Northeast 466 536 26,000 120 Climbing Fort Worth Center
07:19 33.7806 -96.6139 28° Northeast 466 536 26,000 60 Level Fort Worth Center
07:20 33.8844 -96.5478 28° Northeast 466 536 26,200 1,200 Climbing Fort Worth Center
07:21 34.0050 -96.4714 28° Northeast 474 545 28,500 2,280 Climbing Fort Worth Center
07:22 34.1314 -96.3747 32° Northeast 480 552 30,800 1,980 Climbing Fort Worth Center
07:23 34.2475 -96.2778 35° Northeast 495 570 32,500 1,500 Climbing Fort Worth Center
07:24 34.3697 -96.1781 34° Northeast 509 586 33,900 1,800 Climbing Fort Worth Center
07:25 34.4939 -96.0756 34° Northeast 521 600 36,200 1,800 Climbing Fort Worth Center
07:26 34.6117 -95.9778 34° Northeast 527 606 37,500 1,020 Climbing Fort Worth Center
07:27 34.7356 -95.8772 34° Northeast 527 606 38,300 1,020 Climbing Fort Worth Center
07:28 34.8575 -95.7739 35° Northeast 527 606 39,600 1,200 Climbing Fort Worth Center
07:29 34.9769 -95.6650 37° Northeast 532 612 40,800 660 Climbing Fort Worth Center
07:30 35.0942 -95.5561 37° Northeast 532 612 41,000 60 Climbing Fort Worth Center
07:32 35.3250 -95.3319 38° Northeast 523 602 41,000  Level Kansas City Center
07:33 35.3708 -95.2892 37° Northeast 515 593 41,000  Level Memphis Center
07:34 35.4878 -95.1786 38° Northeast 515 593 41,000  Level Memphis Center
07:35 35.6003 -95.0703 38° Northeast 510 587 41,000  Level Memphis Center
07:36 35.7150 -94.9619 37° Northeast 510 587 41,000  Level Memphis Center
07:37 35.8275 -94.8503 39° Northeast 510 587 41,000  Level Memphis Center
07:38 35.9419 -94.7386 38° Northeast 510 587 41,000  Level Memphis Center
07:39 36.0583 -94.6267 38° Northeast 510 587 41,000  Level Memphis Center
07:41 36.2389 -94.4503 38° Northeast 526 605 41,000  Level Kansas City Center
07:42 36.3528 -94.3386 38° Northeast 524 603 41,000  Level Kansas City Center
07:43 36.4669 -94.2261 38° Northeast 524 603 41,000  Level Kansas City Center
07:44 36.5819 -94.1128 38° Northeast 527 606 41,000  Level Kansas City Center
07:45 36.7197 -93.9753 39° Northeast 528 608 41,000  Level Kansas City Center
07:46 36.8342 -93.8628 38° Northeast 526 605 41,000  Level Kansas City Center
07:47 36.9300 -93.7653 39° Northeast 527 606 41,000  Level Kansas City Center
07:48 37.0675 -93.6261 39° Northeast 527 606 41,000  Level Kansas City Center
07:49 37.1831 -93.5097 39° Northeast 530 610 41,000  Level Kansas City Center
07:50 37.2986 -93.3922 39° Northeast 531 611 41,000  Level Kansas City Center
07:51 37.4122 -93.2703 40° Northeast 533 613 41,000  Level Kansas City Center
07:52 37.5214 -93.1425 43° Northeast 534 615 41,000  Level Kansas City Center
07:53 37.6294 -93.0144 43° Northeast 532 612 41,000  Level Kansas City Center
07:54 37.7403 -92.8858 43° Northeast 536 617 41,000  Level Kansas City Center
07:55 37.8503 -92.7558 43° Northeast 535 616 41,000 -300 Level Kansas City Center
07:56 37.9386 -92.6286 49° Northeast 536 617 40,500 -1,620 Descending Kansas City Center
07:57 38.0219 -92.4731 56° Northeast 537 618 37,800 -2,880 Descending Kansas City Center
07:58 38.1083 -92.3167 55° Northeast 542 624 34,900 -3,000 Descending Kansas City Center
07:59 38.2094 -92.1272 56° Northeast 534 615 31,900 -2,640 Descending Kansas City Center
08:00 38.2911 -91.9739 56° Northeast 524 603 29,500 -2,340 Descending Kansas City Center
08:01 38.3714 -91.8231 56° Northeast 518 596 27,300 -2,100 Descending Kansas City Center
08:02 38.4472 -91.6797 56° Northeast 501 577 25,300 -1,860 Descending Kansas City Center
08:03 38.5200 -91.5419 56° Northeast 483 556 23,500 -2,220 Descending Kansas City Center
08:04 38.5875 -91.4061 58° Northeast 456 525 20,800 -2,580 Descending Kansas City Center
08:05 38.6392 -91.2564 66° East 425 489 19,100 -2,280 Descending FAA TRACON SMA TRACON (SMA)
08:05 38.6583 -91.2186 57° Northeast 416 479 18,500 -2,100 Descending FAA TRACON SMA TRACON (SMA)
08:05 38.6764 -91.1814 58° Northeast 408 470 17,700 -2,400 Descending FAA TRACON SMA TRACON (SMA)
08:06 38.6900 -91.1303 71° East 400 460 16,900 -2,160 Descending FAA TRACON SMA TRACON (SMA)
08:06 38.6931 -91.0875 85° East 394 453 16,300 -1,800 Descending FAA TRACON SMA TRACON (SMA)
08:06 38.6958 -91.0453 85° East 389 448 15,700 -2,100 Descending FAA TRACON SMA TRACON (SMA)
08:07 38.6953 -90.9931 91° East 381 438 14,900 -2,280 Descending FAA TRACON SMA TRACON (SMA)
08:07 38.6964 -90.9517 88° East 378 435 14,200 -1,980 Descending FAA TRACON SMA TRACON (SMA)
08:07 38.6967 -90.9106 89° East 375 432 13,600 -2,100 Descending FAA TRACON SMA TRACON (SMA)
08:08 38.6983 -90.8603 88° East 369 425 12,800 -2,100 Descending FAA TRACON SMA TRACON (SMA)
08:08 38.6983 -90.8200 90° East 366 421 12,200 -1,860 Descending FAA TRACON SMA TRACON (SMA)
08:08 38.6994 -90.7808 88° East 362 417 11,600 -2,100 Descending FAA TRACON SMA TRACON (SMA)
08:09 38.7003 -90.7317 89° East 357 411 10,800 -1,920 Descending FAA TRACON SMA TRACON (SMA)
08:09 38.7008 -90.6931 89° East 353 406 10,300 -960 Descending FAA TRACON SMA TRACON (SMA)
08:09 38.7014 -90.6561 89° East 342 394 10,200 -780 Descending FAA TRACON SMA TRACON (SMA)
08:10 38.7036 -90.6122 86° East 324 373 9,800 -1,200 Descending FAA TRACON SMA TRACON (SMA)
08:10 38.7047 -90.5775 88° East 316 364 9,400 -1,200 Descending FAA TRACON SMA TRACON (SMA)
08:10 38.7064 -90.5436 86° East 312 359 9,000 -1,500 Descending FAA TRACON SMA TRACON (SMA)
08:11 38.7081 -90.5019 87° East 306 352 8,400 -1,500 Descending FAA TRACON SMA TRACON (SMA)
08:11 38.7053 -90.4692 96° East 304 350 8,000 -1,080 Descending FAA TRACON SMA TRACON (SMA)
08:11 38.6936 -90.4403 117° Southeast 302 348 7,700 -960 Descending FAA TRACON SMA TRACON (SMA)
08:12 38.6764 -90.4069 123° Southeast 292 336 7,400 -780 Descending FAA TRACON SMA TRACON (SMA)
08:12 38.6639 -90.3806 121° Southeast 282 325 7,200 -900 Descending FAA TRACON SMA TRACON (SMA)
08:12 38.6517 -90.3550 121° Southeast 275 316 6,800 -1,200 Descending FAA TRACON SMA TRACON (SMA)
08:13 38.6364 -90.3233 122° Southeast 272 313 6,400 -1,200 Descending FAA TRACON SMA TRACON (SMA)
08:13 38.6242 -90.2983 122° Southeast 271 312 6,000 -1,080 Descending FAA TRACON SMA TRACON (SMA)
08:13 38.6086 -90.2672 123° Southeast 270 311 5,700 -900 Descending FAA TRACON SMA TRACON (SMA)
08:14 38.5967 -90.2428 122° Southeast 265 305 5,400 -1,080 Descending FAA TRACON SMA TRACON (SMA)
08:14 38.5858 -90.2172 118° Southeast 265 305 5,000 -900 Descending FAA TRACON SMA TRACON (SMA)
08:14 38.5903 -90.1839 80° East 269 310 4,800 -780 Descending FAA TRACON SMA TRACON (SMA)
08:15 38.6050 -90.1683 40° Northeast 239 275 4,500 -900 Descending FAA TRACON SMA TRACON (SMA)
08:15 38.6194 -90.1533 39° Northeast 220 253 4,200 -1,080 Descending FAA TRACON SMA TRACON (SMA)
08:15 38.6372 -90.1361 37° Northeast 208 239 3,800 -1,080 Descending FAA TRACON SMA TRACON (SMA)
08:16 38.6517 -90.1375 356° North 200 230 3,500 -480 Descending FAA TRACON SMA TRACON (SMA)
08:16 38.6628 -90.1486 322° Northwest 173 199 3,500 -600 Level FAA TRACON SMA TRACON (SMA)
08:16 38.6747 -90.1644 314° West 161 185 3,100 -900 Descending FAA TRACON SMA TRACON (SMA)
08:17 38.6819 -90.1792 302° West 159 183 2,900 -900 Descending FAA TRACON SMA TRACON (SMA)
08:17 38.6883 -90.1922 302° West 146 168 2,500 -1,200 Descending FAA TRACON SMA TRACON (SMA)
08:17 38.6956 -90.2081 300° West 134 154 2,100 -900 Descending FAA TRACON SMA TRACON (SMA)
08:18 38.7008 -90.2175 306° West 115 132 1,900 -600 Descending FAA TRACON SMA TRACON (SMA)
08:18 38.7053 -90.2267 302° West 100 115 1,700 -600 Descending FAA TRACON SMA TRACON (SMA)
08:18 38.7114 -90.2394 302° West 105 121 1,500 -600 Descending FAA TRACON SMA TRACON (SMA)
08:19 38.7167 -90.2497 303° West 110 127 1,300 -600 Descending FAA TRACON SMA TRACON (SMA)
08:19 38.7217 -90.2603 301° West 114 131 1,100 -780 Descending FAA TRACON SMA TRACON (SMA)
08:19 38.7283 -90.2733 303° West 115 132 800 -600 Descending FAA TRACON SMA TRACON (SMA)
08:20 38.7317 -90.2814 298° West 113 130 700 -300 Descending FAA TRACON SMA TRACON (SMA)